sensor_id;sensor_type;location;lat;lon;timestamp;pressure;altitude;pressure_sealevel;temperature;humidity
75157;BME280;63736;50.076;8.198;2022-12-16T00:01:39;98601.41;;;-3.73;100.00
75157;BME280;63736;50.076;8.198;2022-12-16T00:04:04;98612.06;;;-3.79;100.00
75157;BME280;63736;50.076;8.198;2022-12-16T00:06:32;98607.81;;;-3.82;100.00
75157;BME280;63736;50.076;8.198;2022-12-16T00:08:59;98610.81;;;-3.91;100.00
75157;BME280;63736;50.076;8.198;2022-12-16T00:11:26;98618.94;;;-3.99;100.00
75157;BME280;63736;50.076;8.198;2022-12-16T00:13:52;98621.97;;;-4.09;100.00
75157;BME280;63736;50.076;8.198;2022-12-16T00:16:19;98611.84;;;-4.17;100.00
75157;BME280;63736;50.076;8.198;2022-12-16T00:18:45;98613.03;;;-4.26;100.00
75157;BME280;63736;50.076;8.198;2022-12-16T00:21:29;98613.31;;;-4.34;100.00
75157;BME280;63736;50.076;8.198;2022-12-16T00:23:56;98617.13;;;-4.42;100.00
75157;BME280;63736;50.076;8.198;2022-12-16T00:26:22;98620.06;;;-4.52;100.00
75157;BME280;63736;50.076;8.198;2022-12-16T00:28:47;98609.88;;;-4.58;100.00
75157;BME280;63736;50.076;8.198;2022-12-16T00:31:13;98617.00;;;-4.63;100.00
75157;BME280;63736;50.076;8.198;2022-12-16T00:33:38;98610.94;;;-4.63;100.00
75157;BME280;63736;50.076;8.198;2022-12-16T00:36:07;98603.06;;;-4.62;100.00
75157;BME280;63736;50.076;8.198;2022-12-16T00:38:33;98613.56;;;-4.63;100.00
75157;BME280;63736;50.076;8.198;2022-12-16T00:40:58;98609.25;;;-4.65;100.00
75157;BME280;63736;50.076;8.198;2022-12-16T00:43:24;98620.56;;;-4.66;100.00
75157;BME280;63736;50.076;8.198;2022-12-16T00:45:49;98619.66;;;-4.65;100.00
75157;BME280;63736;50.076;8.198;2022-12-16T00:48:15;98619.66;;;-4.65;100.00
75157;BME280;63736;50.076;8.198;2022-12-16T00:50:42;98608.41;;;-4.65;100.00
75157;BME280;63736;50.076;8.198;2022-12-16T00:53:08;98601.50;;;-4.66;100.00
75157;BME280;63736;50.076;8.198;2022-12-16T00:55:33;98602.31;;;-4.66;100.00
75157;BME280;63736;50.076;8.198;2022-12-16T00:57:59;98597.88;;;-4.62;100.00
75157;BME280;63736;50.076;8.198;2022-12-16T01:00:24;98599.44;;;-4.58;100.00
75157;BME280;63736;50.076;8.198;2022-12-16T01:02:50;98592.50;;;-4.57;100.00
75157;BME280;63736;50.076;8.198;2022-12-16T01:05:19;98594.91;;;-4.53;100.00
75157;BME280;63736;50.076;8.198;2022-12-16T01:07:46;98600.09;;;-4.51;100.00
75157;BME280;63736;50.076;8.198;2022-12-16T01:10:14;98602.56;;;-4.48;100.00
75157;BME280;63736;50.076;8.198;2022-12-16T01:12:40;98605.09;;;-4.46;100.00
75157;BME280;63736;50.076;8.198;2022-12-16T01:15:06;98607.50;;;-4.40;100.00
75157;BME280;63736;50.076;8.198;2022-12-16T01:17:32;98604.06;;;-4.41;100.00
75157;BME280;63736;50.076;8.198;2022-12-16T01:19:59;98614.47;;;-4.41;100.00
75157;BME280;63736;50.076;8.198;2022-12-16T01:22:25;98613.59;;;-4.41;100.00
75157;BME280;63736;50.076;8.198;2022-12-16T01:24:53;98613.53;;;-4.40;100.00
75157;BME280;63736;50.076;8.198;2022-12-16T01:27:18;98616.16;;;-4.40;100.00
75157;BME280;63736;50.076;8.198;2022-12-16T01:29:44;98617.72;;;-4.36;100.00
75157;BME280;63736;50.076;8.198;2022-12-16T01:32:12;98627.16;;;-4.32;100.00
75157;BME280;63736;50.076;8.198;2022-12-16T01:34:38;98625.44;;;-4.33;100.00
75157;BME280;63736;50.076;8.198;2022-12-16T01:37:03;98630.66;;;-4.33;100.00
75157;BME280;63736;50.076;8.198;2022-12-16T01:39:28;98635.69;;;-4.28;100.00
75157;BME280;63736;50.076;8.198;2022-12-16T01:41:55;98637.25;;;-4.22;100.00
75157;BME280;63736;50.076;8.198;2022-12-16T01:44:22;98644.94;;;-4.19;100.00
75157;BME280;63736;50.076;8.198;2022-12-16T01:46:52;98647.53;;;-4.19;100.00
75157;BME280;63736;50.076;8.198;2022-12-16T01:49:36;98644.78;;;-4.15;100.00
75157;BME280;63736;50.076;8.198;2022-12-16T01:52:05;98642.09;;;-4.13;100.00
75157;BME280;63736;50.076;8.198;2022-12-16T01:54:37;98645.53;;;-4.12;100.00
75157;BME280;63736;50.076;8.198;2022-12-16T01:57:08;98641.25;;;-4.13;100.00
75157;BME280;63736;50.076;8.198;2022-12-16T01:59:38;98629.91;;;-4.12;100.00
75157;BME280;63736;50.076;8.198;2022-12-16T02:02:05;98633.38;;;-4.12;100.00
75157;BME280;63736;50.076;8.198;2022-12-16T02:04:31;98632.50;;;-4.12;100.00
75157;BME280;63736;50.076;8.198;2022-12-16T02:06:57;98638.53;;;-4.10;100.00
75157;BME280;63736;50.076;8.198;2022-12-16T02:09:23;98633.31;;;-4.10;100.00
75157;BME280;63736;50.076;8.198;2022-12-16T02:12:03;98651.38;;;-4.06;100.00
75157;BME280;63736;50.076;8.198;2022-12-16T02:17:13;98653.88;;;-4.03;100.00
75157;BME280;63736;50.076;8.198;2022-12-16T02:26:10;98651.38;;;-4.06;100.00
75157;BME280;63736;50.076;8.198;2022-12-16T02:31:58;98647.91;;;-4.06;100.00
75157;BME280;63736;50.076;8.198;2022-12-16T02:34:38;98648.22;;;-4.14;100.00
75157;BME280;63736;50.076;8.198;2022-12-16T02:37:19;98655.19;;;-4.15;100.00
75157;BME280;63736;50.076;8.198;2022-12-16T02:39:52;98655.28;;;-4.18;100.00
75157;BME280;63736;50.076;8.198;2022-12-16T02:42:50;98646.56;;;-4.17;100.00
75157;BME280;63736;50.076;8.198;2022-12-16T02:45:22;98655.44;;;-4.21;100.00
75157;BME280;63736;50.076;8.198;2022-12-16T02:47:50;98660.13;;;-4.31;100.00
75157;BME280;63736;50.076;8.198;2022-12-16T02:52:54;98660.38;;;-4.37;100.00
75157;BME280;63736;50.076;8.198;2022-12-16T02:55:21;98665.69;;;-4.40;100.00
75157;BME280;63736;50.076;8.198;2022-12-16T02:58:05;98665.88;;;-4.44;100.00
75157;BME280;63736;50.076;8.198;2022-12-16T03:00:55;98659.84;;;-4.46;100.00
75157;BME280;63736;50.076;8.198;2022-12-16T03:03:54;98660.94;;;-4.52;100.00
75157;BME280;63736;50.076;8.198;2022-12-16T03:06:24;98665.34;;;-4.54;100.00
75157;BME280;63736;50.076;8.198;2022-12-16T03:08:53;98664.56;;;-4.56;100.00
75157;BME280;63736;50.076;8.198;2022-12-16T03:11:21;98668.16;;;-4.60;100.00
75157;BME280;63736;50.076;8.198;2022-12-16T03:13:50;98660.41;;;-4.62;100.00
75157;BME280;63736;50.076;8.198;2022-12-16T03:16:19;98670.88;;;-4.63;100.00
75157;BME280;63736;50.076;8.198;2022-12-16T03:18:49;98676.91;;;-4.61;100.00
75157;BME280;63736;50.076;8.198;2022-12-16T03:21:17;98667.38;;;-4.62;100.00
75157;BME280;63736;50.076;8.198;2022-12-16T03:23:49;98676.94;;;-4.63;100.00
75157;BME280;63736;50.076;8.198;2022-12-16T03:26:24;98670.81;;;-4.62;100.00
75157;BME280;63736;50.076;8.198;2022-12-16T03:29:01;98670.75;;;-4.60;100.00
75157;BME280;63736;50.076;8.198;2022-12-16T03:31:36;98674.38;;;-4.65;100.00
75157;BME280;63736;50.076;8.198;2022-12-16T03:34:17;98680.47;;;-4.64;100.00
75157;BME280;63736;50.076;8.198;2022-12-16T03:36:51;98684.19;;;-4.71;100.00
75157;BME280;63736;50.076;8.198;2022-12-16T03:39:18;98682.72;;;-4.78;100.00
75157;BME280;63736;50.076;8.198;2022-12-16T03:41:48;98682.53;;;-4.74;100.00
75157;BME280;63736;50.076;8.198;2022-12-16T03:44:16;98674.72;;;-4.74;100.00
75157;BME280;63736;50.076;8.198;2022-12-16T03:46:42;98683.44;;;-4.75;100.00
75157;BME280;63736;50.076;8.198;2022-12-16T03:49:07;98681.63;;;-4.73;100.00
75157;BME280;63736;50.076;8.198;2022-12-16T03:51:32;98690.16;;;-4.68;100.00
75157;BME280;63736;50.076;8.198;2022-12-16T03:53:57;98693.50;;;-4.64;100.00
75157;BME280;63736;50.076;8.198;2022-12-16T03:56:23;98690.66;;;-4.58;100.00
75157;BME280;63736;50.076;8.198;2022-12-16T03:58:48;98691.47;;;-4.56;100.00
75157;BME280;63736;50.076;8.198;2022-12-16T04:01:13;98696.66;;;-4.56;100.00
75157;BME280;63736;50.076;8.198;2022-12-16T04:03:39;98702.56;;;-4.51;100.00
75157;BME280;63736;50.076;8.198;2022-12-16T04:06:04;98708.59;;;-4.49;100.00
75157;BME280;63736;50.076;8.198;2022-12-16T04:08:29;98705.03;;;-4.46;100.00
75157;BME280;63736;50.076;8.198;2022-12-16T04:10:55;98704.78;;;-4.40;100.00
75157;BME280;63736;50.076;8.198;2022-12-16T04:13:39;98707.38;;;-4.40;100.00
75157;BME280;63736;50.076;8.198;2022-12-16T04:16:25;98714.19;;;-4.36;100.00
75157;BME280;63736;50.076;8.198;2022-12-16T04:19:22;98714.94;;;-4.32;100.00
75157;BME280;63736;50.076;8.198;2022-12-16T04:22:12;98718.41;;;-4.32;100.00
75157;BME280;63736;50.076;8.198;2022-12-16T04:25:02;98716.63;;;-4.31;100.00
75157;BME280;63736;50.076;8.198;2022-12-16T04:27:28;98715.75;;;-4.30;100.00
75157;BME280;63736;50.076;8.198;2022-12-16T04:29:54;98720.09;;;-4.31;100.00
75157;BME280;63736;50.076;8.198;2022-12-16T04:32:37;98719.31;;;-4.33;100.00
75157;BME280;63736;50.076;8.198;2022-12-16T04:35:21;98721.13;;;-4.35;100.00
75157;BME280;63736;50.076;8.198;2022-12-16T04:38:05;98731.66;;;-4.38;100.00
75157;BME280;63736;50.076;8.198;2022-12-16T04:40:49;98733.63;;;-4.44;100.00
75157;BME280;63736;50.076;8.198;2022-12-16T04:43:33;98741.72;;;-4.52;100.00
75157;BME280;63736;50.076;8.198;2022-12-16T04:46:17;98732.53;;;-4.62;100.00
75157;BME280;63736;50.076;8.198;2022-12-16T04:49:01;98734.59;;;-4.72;100.00
75157;BME280;63736;50.076;8.198;2022-12-16T04:51:45;98735.72;;;-4.79;100.00
75157;BME280;63736;50.076;8.198;2022-12-16T04:54:28;98746.19;;;-4.81;100.00
75157;BME280;63736;50.076;8.198;2022-12-16T04:57:12;98743.63;;;-4.83;100.00
75157;BME280;63736;50.076;8.198;2022-12-16T04:59:56;98747.03;;;-4.81;100.00
75157;BME280;63736;50.076;8.198;2022-12-16T05:02:40;98748.56;;;-4.75;100.00
75157;BME280;63736;50.076;8.198;2022-12-16T05:05:24;98755.34;;;-4.69;100.00
75157;BME280;63736;50.076;8.198;2022-12-16T05:08:07;98763.88;;;-4.66;100.00
75157;BME280;63736;50.076;8.198;2022-12-16T05:10:51;98755.88;;;-4.59;100.00
75157;BME280;63736;50.076;8.198;2022-12-16T05:13:52;98765.28;;;-4.55;100.00
75157;BME280;63736;50.076;8.198;2022-12-16T05:16:36;98766.16;;;-4.55;100.00
75157;BME280;63736;50.076;8.198;2022-12-16T05:19:20;98760.88;;;-4.53;100.00
75157;BME280;63736;50.076;8.198;2022-12-16T05:22:04;98766.91;;;-4.53;100.00
75157;BME280;63736;50.076;8.198;2022-12-16T05:24:48;98765.28;;;-4.55;100.00
75157;BME280;63736;50.076;8.198;2022-12-16T05:27:32;98774.03;;;-4.58;100.00
75157;BME280;63736;50.076;8.198;2022-12-16T05:30:16;98766.16;;;-4.55;100.00
75157;BME280;63736;50.076;8.198;2022-12-16T05:33:00;98779.81;;;-4.48;100.00
75157;BME280;63736;50.076;8.198;2022-12-16T05:35:44;98783.69;;;-4.35;100.00
75157;BME280;63736;50.076;8.198;2022-12-16T05:38:28;98787.03;;;-4.31;100.00
75157;BME280;63736;50.076;8.198;2022-12-16T05:41:12;98793.06;;;-4.29;100.00
75157;BME280;63736;50.076;8.198;2022-12-16T05:43:56;98796.63;;;-4.32;100.00
75157;BME280;63736;50.076;8.198;2022-12-16T05:46:40;98798.44;;;-4.34;100.00
75157;BME280;63736;50.076;8.198;2022-12-16T05:49:24;98805.28;;;-4.31;100.00
75157;BME280;63736;50.076;8.198;2022-12-16T05:52:08;98808.78;;;-4.32;100.00
75157;BME280;63736;50.076;8.198;2022-12-16T05:54:51;98808.78;;;-4.32;100.00
75157;BME280;63736;50.076;8.198;2022-12-16T05:57:35;98830.53;;;-4.32;100.00
75157;BME280;63736;50.076;8.198;2022-12-16T06:00:19;98830.59;;;-4.35;100.00
75157;BME280;63736;50.076;8.198;2022-12-16T06:03:03;98840.25;;;-4.37;100.00
75157;BME280;63736;50.076;8.198;2022-12-16T06:05:47;98836.78;;;-4.37;100.00
75157;BME280;63736;50.076;8.198;2022-12-16T06:08:50;98848.09;;;-4.38;100.00
75157;BME280;63736;50.076;8.198;2022-12-16T06:11:34;98848.22;;;-4.41;100.00
75157;BME280;63736;50.076;8.198;2022-12-16T06:14:18;98840.56;;;-4.46;100.00
75157;BME280;63736;50.076;8.198;2022-12-16T06:17:02;98850.06;;;-4.45;100.00
75157;BME280;63736;50.076;8.198;2022-12-16T06:19:46;98843.13;;;-4.44;100.00
75157;BME280;63736;50.076;8.198;2022-12-16T06:22:30;98850.00;;;-4.42;100.00
75157;BME280;63736;50.076;8.198;2022-12-16T06:25:16;98854.31;;;-4.41;100.00
75157;BME280;63736;50.076;8.198;2022-12-16T06:28:00;98850.00;;;-4.42;100.00
75157;BME280;63736;50.076;8.198;2022-12-16T06:30:43;98852.66;;;-4.43;100.00
75157;BME280;63736;50.076;8.198;2022-12-16T06:33:27;98861.25;;;-4.41;100.00
75157;BME280;63736;50.076;8.198;2022-12-16T06:36:11;98870.66;;;-4.37;100.00
75157;BME280;63736;50.076;8.198;2022-12-16T06:38:55;98870.59;;;-4.34;100.00
75157;BME280;63736;50.076;8.198;2022-12-16T06:41:39;98877.44;;;-4.32;100.00
75157;BME280;63736;50.076;8.198;2022-12-16T06:44:22;98878.22;;;-4.29;100.00
75157;BME280;63736;50.076;8.198;2022-12-16T06:47:07;98888.59;;;-4.26;100.00
75157;BME280;63736;50.076;8.198;2022-12-16T06:49:51;98887.63;;;-4.24;100.00
75157;BME280;63736;50.076;8.198;2022-12-16T06:52:35;98890.97;;;-4.20;100.00
75157;BME280;63736;50.076;8.198;2022-12-16T06:55:20;98897.75;;;-4.15;100.00
75157;BME280;63736;50.076;8.198;2022-12-16T06:58:04;98905.44;;;-4.11;100.00
75157;BME280;63736;50.076;8.198;2022-12-16T07:00:48;98903.75;;;-4.12;100.00
75157;BME280;63736;50.076;8.198;2022-12-16T07:03:32;98909.91;;;-4.15;100.00
75157;BME280;63736;50.076;8.198;2022-12-16T07:06:16;98920.25;;;-4.12;100.00
75157;BME280;63736;50.076;8.198;2022-12-16T07:09:03;98922.81;;;-4.10;100.00
75157;BME280;63736;50.076;8.198;2022-12-16T07:11:47;98936.81;;;-4.13;100.00
75157;BME280;63736;50.076;8.198;2022-12-16T07:14:31;98942.03;;;-4.13;100.00
75157;BME280;63736;50.076;8.198;2022-12-16T07:17:15;98941.22;;;-4.15;100.00
75157;BME280;63736;50.076;8.198;2022-12-16T07:19:59;98945.59;;;-4.16;100.00
75157;BME280;63736;50.076;8.198;2022-12-16T07:22:44;98951.50;;;-4.10;100.00
75157;BME280;63736;50.076;8.198;2022-12-16T07:25:28;98959.16;;;-4.06;100.00
75157;BME280;63736;50.076;8.198;2022-12-16T07:28:12;98954.75;;;-4.04;100.00
75157;BME280;63736;50.076;8.198;2022-12-16T07:30:56;98956.53;;;-4.04;100.00
75157;BME280;63736;50.076;8.198;2022-12-16T07:33:39;98960.72;;;-4.00;100.00
75157;BME280;63736;50.076;8.198;2022-12-16T07:36:23;98971.91;;;-3.96;100.00
75157;BME280;63736;50.076;8.198;2022-12-16T07:39:07;98972.50;;;-3.88;100.00
75157;BME280;63736;50.076;8.198;2022-12-16T07:41:51;98972.44;;;-3.87;100.00
75157;BME280;63736;50.076;8.198;2022-12-16T07:44:35;98988.03;;;-3.85;100.00
75157;BME280;63736;50.076;8.198;2022-12-16T07:47:19;98980.06;;;-3.80;100.00
75157;BME280;63736;50.076;8.198;2022-12-16T07:50:03;98980.69;;;-3.49;100.00
75157;BME280;63736;50.076;8.198;2022-12-16T07:52:55;98983.13;;;-2.95;100.00
75157;BME280;63736;50.076;8.198;2022-12-16T07:55:38;98976.66;;;-1.55;100.00
75157;BME280;63736;50.076;8.198;2022-12-16T07:58:22;98984.06;;;-0.10;90.21
75157;BME280;63736;50.076;8.198;2022-12-16T08:01:06;98987.47;;;0.44;79.31
75157;BME280;63736;50.076;8.198;2022-12-16T08:03:50;98989.09;;;0.98;74.25
75157;BME280;63736;50.076;8.198;2022-12-16T08:06:34;98985.13;;;1.55;68.88
75157;BME280;63736;50.076;8.198;2022-12-16T08:09:17;98999.25;;;2.16;65.83
75157;BME280;63736;50.076;8.198;2022-12-16T08:12:01;99009.03;;;2.89;61.99
75157;BME280;63736;50.076;8.198;2022-12-16T08:14:46;99012.91;;;3.12;58.65
75157;BME280;63736;50.076;8.198;2022-12-16T08:17:29;99010.66;;;3.62;56.87
75157;BME280;63736;50.076;8.198;2022-12-16T08:20:13;99006.88;;;4.21;54.61
75157;BME280;63736;50.076;8.198;2022-12-16T08:22:57;99004.56;;;4.70;53.13
75157;BME280;63736;50.076;8.198;2022-12-16T08:25:41;99007.22;;;5.58;50.52
75157;BME280;63736;50.076;8.198;2022-12-16T08:28:25;99013.31;;;5.72;48.39
75157;BME280;63736;50.076;8.198;2022-12-16T08:31:09;99016.44;;;5.90;47.71
75157;BME280;63736;50.076;8.198;2022-12-16T08:33:52;99017.38;;;6.02;46.65
75157;BME280;63736;50.076;8.198;2022-12-16T08:36:36;99022.25;;;6.08;46.23
75157;BME280;63736;50.076;8.198;2022-12-16T08:39:20;99029.91;;;6.24;45.20
75157;BME280;63736;50.076;8.198;2022-12-16T08:42:04;99035.41;;;6.34;45.58
75157;BME280;63736;50.076;8.198;2022-12-16T08:44:48;99049.00;;;5.92;45.48
75157;BME280;63736;50.076;8.198;2022-12-16T08:47:31;99052.25;;;5.58;46.16
75157;BME280;63736;50.076;8.198;2022-12-16T08:50:16;99062.78;;;5.47;46.57
75157;BME280;63736;50.076;8.198;2022-12-16T08:53:00;99065.66;;;5.18;47.29
75157;BME280;63736;50.076;8.198;2022-12-16T08:55:44;99071.09;;;4.63;48.58
75157;BME280;63736;50.076;8.198;2022-12-16T08:58:27;99071.78;;;4.40;49.31
75157;BME280;63736;50.076;8.198;2022-12-16T09:01:12;99082.50;;;4.24;50.29
75157;BME280;63736;50.076;8.198;2022-12-16T09:03:55;99077.72;;;3.74;51.77
75157;BME280;63736;50.076;8.198;2022-12-16T09:06:39;99086.91;;;3.40;52.72
75157;BME280;63736;50.076;8.198;2022-12-16T09:09:23;99088.72;;;2.94;55.00
75157;BME280;63736;50.076;8.198;2022-12-16T09:12:07;99092.97;;;2.67;57.11
75157;BME280;63736;50.076;8.198;2022-12-16T09:14:51;99097.97;;;2.57;58.48
75157;BME280;63736;50.076;8.198;2022-12-16T09:17:35;99112.56;;;2.16;59.34
75157;BME280;63736;50.076;8.198;2022-12-16T09:20:19;99113.91;;;1.75;61.38
75157;BME280;63736;50.076;8.198;2022-12-16T09:23:03;99111.41;;;1.56;63.25
75157;BME280;63736;50.076;8.198;2022-12-16T09:25:47;99117.38;;;1.26;65.10
75157;BME280;63736;50.076;8.198;2022-12-16T09:28:31;99114.09;;;0.88;66.75
75157;BME280;63736;50.076;8.198;2022-12-16T09:31:15;99118.06;;;0.60;69.66
75157;BME280;63736;50.076;8.198;2022-12-16T09:33:58;99130.56;;;0.20;72.10
75157;BME280;63736;50.076;8.198;2022-12-16T09:36:42;99128.94;;;-0.02;73.91
75157;BME280;63736;50.076;8.198;2022-12-16T09:39:28;99130.47;;;-0.17;75.23
75157;BME280;63736;50.076;8.198;2022-12-16T09:51:20;99139.47;;;-0.61;81.03
75157;BME280;63736;50.076;8.198;2022-12-16T09:54:04;99143.06;;;-0.63;81.86
75157;BME280;63736;50.076;8.198;2022-12-16T09:56:59;99143.69;;;-0.77;82.07
75157;BME280;63736;50.076;8.198;2022-12-16T09:59:48;99137.34;;;-0.92;84.83
75157;BME280;63736;50.076;8.198;2022-12-16T10:02:35;99153.41;;;-1.00;85.18
75157;BME280;63736;50.076;8.198;2022-12-16T10:05:22;99151.94;;;-1.07;87.05
75157;BME280;63736;50.076;8.198;2022-12-16T10:08:16;99143.22;;;-1.08;87.36
75157;BME280;63736;50.076;8.198;2022-12-16T10:14:01;99144.25;;;-1.12;88.52
75157;BME280;63736;50.076;8.198;2022-12-16T10:17:18;99146.84;;;-1.10;88.78
75157;BME280;63736;50.076;8.198;2022-12-16T10:20:32;99147.59;;;-1.08;88.64
75157;BME280;63736;50.076;8.198;2022-12-16T10:26:27;99146.09;;;-1.14;89.96
75157;BME280;63736;50.076;8.198;2022-12-16T10:29:20;99147.75;;;-1.11;90.23
75157;BME280;63736;50.076;8.198;2022-12-16T10:32:18;99143.34;;;-1.11;90.20
75157;BME280;63736;50.076;8.198;2022-12-16T10:35:04;99152.25;;;-1.15;90.58
75157;BME280;63736;50.076;8.198;2022-12-16T10:37:59;99154.75;;;-1.12;91.01
75157;BME280;63736;50.076;8.198;2022-12-16T10:40:45;99159.81;;;-1.07;90.11
75157;BME280;63736;50.076;8.198;2022-12-16T10:43:38;99162.25;;;-1.03;90.45
75157;BME280;63736;50.076;8.198;2022-12-16T10:46:28;99162.25;;;-1.03;90.28
75157;BME280;63736;50.076;8.198;2022-12-16T10:49:15;99151.03;;;-1.06;90.46
75157;BME280;63736;50.076;8.198;2022-12-16T10:51:59;99157.03;;;-1.04;90.59
75157;BME280;63736;50.076;8.198;2022-12-16T10:55:36;99163.00;;;-1.01;90.96
75157;BME280;63736;50.076;8.198;2022-12-16T10:58:24;99165.63;;;-1.01;91.67
75157;BME280;63736;50.076;8.198;2022-12-16T11:01:25;99162.03;;;-0.98;91.32
75157;BME280;63736;50.076;8.198;2022-12-16T11:04:38;99160.28;;;-0.97;92.21
75157;BME280;63736;50.076;8.198;2022-12-16T11:10:35;99164.91;;;-1.04;93.10
75157;BME280;63736;50.076;8.198;2022-12-16T11:13:31;99165.78;;;-1.04;93.08
75157;BME280;63736;50.076;8.198;2022-12-16T11:16:25;99163.91;;;-1.02;93.61
75157;BME280;63736;50.076;8.198;2022-12-16T11:19:25;99169.06;;;-0.98;93.81
75157;BME280;63736;50.076;8.198;2022-12-16T11:22:15;99164.00;;;-1.03;93.62
75157;BME280;63736;50.076;8.198;2022-12-16T11:25:14;99163.91;;;-1.02;93.60
75157;BME280;63736;50.076;8.198;2022-12-16T11:28:16;99162.81;;;-0.96;93.86
75157;BME280;63736;50.076;8.198;2022-12-16T11:31:13;99173.97;;;-0.91;94.63
75157;BME280;63736;50.076;8.198;2022-12-16T11:34:00;99171.13;;;-0.86;93.86
75157;BME280;63736;50.076;8.198;2022-12-16T11:36:46;99174.56;;;-0.84;92.73
75157;BME280;63736;50.076;8.198;2022-12-16T11:39:31;99174.31;;;-0.78;92.93
75157;BME280;63736;50.076;8.198;2022-12-16T11:42:20;99175.94;;;-0.75;92.95
75157;BME280;63736;50.076;8.198;2022-12-16T11:45:06;99181.88;;;-0.72;92.15
75157;BME280;63736;50.076;8.198;2022-12-16T11:47:57;99179.00;;;-0.65;91.68
75157;BME280;63736;50.076;8.198;2022-12-16T11:50:56;99183.91;;;-0.58;91.21
75157;BME280;63736;50.076;8.198;2022-12-16T11:53:47;99182.13;;;-0.57;90.33
75157;BME280;63736;50.076;8.198;2022-12-16T11:56:36;99186.47;;;-0.56;90.47
75157;BME280;63736;50.076;8.198;2022-12-16T11:59:26;99190.63;;;-0.51;91.10
75157;BME280;63736;50.076;8.198;2022-12-16T12:02:28;99189.63;;;-0.48;90.51
75157;BME280;63736;50.076;8.198;2022-12-16T12:05:13;99193.81;;;-0.44;89.40
75157;BME280;63736;50.076;8.198;2022-12-16T12:08:18;99202.75;;;-0.48;89.53
75157;BME280;63736;50.076;8.198;2022-12-16T12:11:18;99211.53;;;-0.49;89.97
75157;BME280;63736;50.076;8.198;2022-12-16T12:14:34;99212.59;;;-0.53;89.42
75157;BME280;63736;50.076;8.198;2022-12-16T12:23:52;99208.38;;;-0.57;89.34
75157;BME280;63736;50.076;8.198;2022-12-16T12:26:46;99213.59;;;-0.57;89.05
75157;BME280;63736;50.076;8.198;2022-12-16T12:30:05;99225.97;;;-0.59;89.52
75157;BME280;63736;50.076;8.198;2022-12-16T12:38:54;99239.97;;;-0.81;89.49
75157;BME280;63736;50.076;8.198;2022-12-16T12:47:58;99244.16;;;-0.97;89.92
75157;BME280;63736;50.076;8.198;2022-12-16T12:51:03;99246.00;;;-1.00;90.37
75157;BME280;63736;50.076;8.198;2022-12-16T12:54:05;99242.53;;;-1.00;91.09
75157;BME280;63736;50.076;8.198;2022-12-16T12:56:53;99242.69;;;-1.05;91.03
75157;BME280;63736;50.076;8.198;2022-12-16T13:00:05;99248.69;;;-1.01;90.97
75157;BME280;63736;50.076;8.198;2022-12-16T13:02:58;99253.25;;;-1.06;90.74
75157;BME280;63736;50.076;8.198;2022-12-16T13:05:44;99260.75;;;-1.19;92.59
75157;BME280;63736;50.076;8.198;2022-12-16T13:08:31;99258.50;;;-1.28;93.69
75157;BME280;63736;50.076;8.198;2022-12-16T13:11:15;99261.66;;;-1.42;95.21
75157;BME280;63736;50.076;8.198;2022-12-16T13:13:59;99269.72;;;-1.47;96.46
75157;BME280;63736;50.076;8.198;2022-12-16T13:22:31;99263.56;;;-1.70;98.96
75157;BME280;63736;50.076;8.198;2022-12-16T13:28:30;99270.28;;;-1.86;99.94
75157;BME280;63736;50.076;8.198;2022-12-16T13:31:15;99275.81;;;-1.94;99.89
75157;BME280;63736;50.076;8.198;2022-12-16T13:34:06;99284.53;;;-1.93;100.00
75157;BME280;63736;50.076;8.198;2022-12-16T13:36:55;99292.47;;;-1.96;100.00
75157;BME280;63736;50.076;8.198;2022-12-16T13:39:41;99303.91;;;-1.99;100.00
75157;BME280;63736;50.076;8.198;2022-12-16T13:45:34;99310.09;;;-2.02;100.00
75157;BME280;63736;50.076;8.198;2022-12-16T13:48:44;99318.94;;;-2.04;100.00
75157;BME280;63736;50.076;8.198;2022-12-16T13:54:32;99321.78;;;-2.10;100.00
75157;BME280;63736;50.076;8.198;2022-12-16T13:57:21;99326.13;;;-2.09;100.00
75157;BME280;63736;50.076;8.198;2022-12-16T14:00:16;99334.81;;;-2.09;100.00
75157;BME280;63736;50.076;8.198;2022-12-16T14:03:04;99328.69;;;-2.08;100.00
75157;BME280;63736;50.076;8.198;2022-12-16T14:06:00;99330.31;;;-2.05;100.00
75157;BME280;63736;50.076;8.198;2022-12-16T14:08:44;99339.13;;;-2.08;100.00
75157;BME280;63736;50.076;8.198;2022-12-16T14:11:42;99341.63;;;-2.05;100.00
75157;BME280;63736;50.076;8.198;2022-12-16T14:14:34;99341.63;;;-2.05;100.00
75157;BME280;63736;50.076;8.198;2022-12-16T14:17:28;99359.13;;;-2.05;100.00
75157;BME280;63736;50.076;8.198;2022-12-16T14:20:21;99358.31;;;-2.07;100.00
75157;BME280;63736;50.076;8.198;2022-12-16T14:23:30;99358.31;;;-2.07;100.00
75157;BME280;63736;50.076;8.198;2022-12-16T14:26:16;99362.91;;;-2.14;100.00
75157;BME280;63736;50.076;8.198;2022-12-16T14:29:02;99363.03;;;-2.17;100.00
75157;BME280;63736;50.076;8.198;2022-12-16T14:31:46;99378.03;;;-2.22;100.00
75157;BME280;63736;50.076;8.198;2022-12-16T14:34:34;99376.31;;;-2.23;100.00
75157;BME280;63736;50.076;8.198;2022-12-16T14:37:19;99381.69;;;-2.28;100.00
75157;BME280;63736;50.076;8.198;2022-12-16T14:40:17;99385.25;;;-2.30;100.00
75157;BME280;63736;50.076;8.198;2022-12-16T14:43:02;99387.97;;;-2.34;100.00
75157;BME280;63736;50.076;8.198;2022-12-16T14:45:49;99383.75;;;-2.38;100.00
75157;BME280;63736;50.076;8.198;2022-12-16T14:48:35;99390.84;;;-2.41;100.00
75157;BME280;63736;50.076;8.198;2022-12-16T14:51:35;99394.41;;;-2.44;100.00
75157;BME280;63736;50.076;8.198;2022-12-16T14:54:41;99408.50;;;-2.48;100.00
75157;BME280;63736;50.076;8.198;2022-12-16T14:57:27;99408.81;;;-2.57;100.00
75157;BME280;63736;50.076;8.198;2022-12-16T15:00:17;99409.84;;;-2.63;100.00
75157;BME280;63736;50.076;8.198;2022-12-16T15:03:19;99412.75;;;-2.72;100.00
75157;BME280;63736;50.076;8.198;2022-12-16T15:06:15;99418.16;;;-2.78;100.00
75157;BME280;63736;50.076;8.198;2022-12-16T15:09:03;99415.75;;;-2.85;100.00
75157;BME280;63736;50.076;8.198;2022-12-16T15:11:51;99420.28;;;-2.91;100.00
75157;BME280;63736;50.076;8.198;2022-12-16T15:14:38;99423.16;;;-2.99;100.00
75157;BME280;63736;50.076;8.198;2022-12-16T15:17:24;99432.91;;;-3.04;100.00
75157;BME280;63736;50.076;8.198;2022-12-16T15:20:15;99426.00;;;-3.07;100.00
75157;BME280;63736;50.076;8.198;2022-12-16T15:22:59;99434.91;;;-3.14;100.00